createdAt,value
2023-05-04T00:02:12.803Z,4.10
2023-05-04T00:04:42.690Z,3.80
2023-05-04T00:07:10.643Z,4.23
2023-05-04T00:09:38.716Z,4.30
2023-05-04T00:12:08.013Z,4.90
2023-05-04T00:14:37.507Z,4.93
2023-05-04T00:17:06.663Z,5.07
2023-05-04T00:19:34.951Z,4.50
2023-05-04T00:22:03.074Z,4.70
2023-05-04T00:24:30.929Z,4.43
2023-05-04T00:26:58.635Z,4.73
2023-05-04T00:29:26.388Z,4.60
2023-05-04T00:31:55.498Z,5.20
2023-05-04T00:34:23.395Z,5.03
2023-05-04T00:36:51.127Z,5.47
2023-05-04T00:39:19.568Z,5.20
2023-05-04T00:41:47.298Z,5.70
2023-05-04T00:44:15.097Z,5.60
2023-05-04T00:46:42.997Z,6.13
2023-05-04T00:49:12.463Z,5.93
2023-05-04T00:51:41.103Z,6.43
2023-05-04T00:54:08.842Z,6.60
2023-05-04T00:56:41.116Z,6.67
2023-05-04T00:59:08.854Z,5.60
2023-05-04T01:01:37.109Z,6.10
2023-05-04T01:04:05.882Z,6.03
2023-05-04T01:06:43.367Z,5.70
2023-05-04T01:09:18.470Z,5.60
2023-05-04T01:11:54.121Z,6.13
2023-05-04T01:14:22.816Z,5.90
2023-05-04T01:16:56.130Z,6.27
2023-05-04T01:19:24.090Z,5.87
2023-05-04T01:21:53.134Z,5.73
2023-05-04T01:24:21.515Z,5.97
2023-05-04T01:26:51.839Z,6.70
2023-05-04T01:29:26.569Z,5.77
2023-05-04T01:31:55.575Z,6.17
2023-05-04T01:34:23.921Z,5.60
2023-05-04T01:36:53.398Z,5.37
2023-05-04T01:39:21.994Z,5.83
2023-05-04T01:41:49.870Z,5.43
2023-05-04T01:44:17.745Z,5.43
2023-05-04T01:46:45.854Z,6.10
2023-05-04T01:49:13.632Z,5.37
2023-05-04T01:51:41.507Z,4.77
2023-05-04T01:54:10.610Z,5.00
2023-05-04T01:56:38.319Z,5.83
2023-05-04T01:59:06.030Z,5.17
2023-05-04T02:01:33.817Z,5.90
2023-05-04T02:04:04.611Z,5.70
2023-05-04T02:06:32.619Z,5.50
2023-05-04T02:09:00.338Z,5.57
2023-05-04T02:11:29.370Z,5.93
2023-05-04T02:13:57.109Z,5.90
2023-05-04T02:16:24.914Z,5.57
2023-05-04T02:18:52.644Z,6.00
2023-05-04T02:21:20.738Z,5.50
2023-05-04T02:23:48.453Z,4.87
2023-05-04T02:26:16.304Z,5.23
2023-05-04T02:28:45.380Z,6.10
2023-05-04T02:31:13.144Z,5.70
2023-05-04T02:33:40.902Z,6.07
2023-05-04T02:36:08.924Z,5.63
2023-05-04T02:38:36.636Z,5.70
2023-05-04T02:41:04.359Z,5.37
2023-05-04T02:43:32.084Z,5.50
2023-05-04T02:46:01.227Z,5.90
2023-05-04T02:48:29.197Z,5.20
2023-05-04T02:50:56.931Z,5.13
2023-05-04T02:53:24.656Z,5.53
2023-05-04T02:55:52.393Z,5.97
2023-05-04T02:58:20.234Z,6.83
2023-05-04T03:00:47.991Z,5.70
2023-05-04T03:03:17.100Z,6.23
2023-05-04T03:05:44.832Z,6.40
2023-05-04T03:08:12.555Z,5.60
2023-05-04T03:10:40.275Z,5.33
2023-05-04T03:13:08.064Z,4.97
2023-05-04T03:15:35.919Z,5.70
2023-05-04T03:18:03.748Z,6.20
2023-05-04T03:20:32.826Z,5.37
2023-05-04T03:23:00.526Z,6.27
2023-05-04T03:25:28.318Z,5.50
2023-05-04T03:27:56.223Z,5.53
2023-05-04T03:30:23.990Z,6.00
2023-05-04T03:32:51.767Z,5.80
2023-05-04T03:35:24.618Z,6.00
2023-05-04T03:37:54.180Z,6.37
2023-05-04T03:40:24.150Z,6.33
2023-05-04T03:42:52.330Z,6.50
2023-05-04T03:45:20.521Z,5.63
2023-05-04T03:47:48.264Z,7.07
2023-05-04T03:50:16.085Z,6.03
2023-05-04T03:52:43.780Z,5.77
2023-05-04T03:55:12.832Z,6.57
2023-05-04T03:57:41.373Z,5.80
2023-05-04T04:00:09.979Z,5.80
2023-05-04T04:02:37.820Z,6.03
2023-05-04T04:05:06.494Z,5.90
2023-05-04T04:07:34.372Z,6.20
2023-05-04T04:10:02.166Z,5.73
2023-05-04T04:12:31.311Z,5.83
2023-05-04T04:14:59.026Z,6.10
2023-05-04T04:17:26.749Z,5.67
2023-05-04T04:19:54.465Z,5.30
2023-05-04T04:22:22.209Z,5.83
2023-05-04T04:24:49.915Z,6.50
2023-05-04T04:27:17.704Z,6.30
2023-05-04T04:29:46.784Z,7.27
2023-05-04T04:32:14.562Z,6.80
2023-05-04T04:34:42.367Z,7.27
2023-05-04T04:37:10.172Z,5.93
2023-05-04T04:39:37.990Z,6.47
2023-05-04T04:42:05.748Z,5.97
2023-05-04T04:44:33.601Z,6.00
2023-05-04T04:47:02.905Z,5.97
2023-05-04T04:49:30.733Z,5.90
2023-05-04T04:51:58.438Z,5.43
2023-05-04T04:54:27.203Z,5.50
2023-05-04T04:56:55.018Z,5.97
2023-05-04T04:59:24.974Z,6.23
2023-05-04T05:01:52.755Z,6.00
2023-05-04T05:04:22.270Z,6.50
2023-05-04T05:06:51.497Z,6.30
2023-05-04T05:09:19.230Z,6.27
2023-05-04T05:11:46.924Z,6.40
2023-05-04T05:14:14.682Z,5.90
2023-05-04T05:16:42.565Z,6.23
2023-05-04T05:19:10.358Z,5.97
2023-05-04T05:21:39.569Z,6.00
2023-05-04T05:24:07.523Z,6.20
2023-05-04T05:26:35.339Z,6.07
2023-05-04T05:29:03.249Z,6.60
2023-05-04T05:31:31.925Z,6.90
2023-05-04T05:33:59.840Z,6.47
2023-05-04T05:36:27.797Z,6.73
2023-05-04T05:38:56.833Z,6.50
2023-05-04T05:41:24.587Z,6.33
2023-05-04T05:43:52.280Z,6.73
2023-05-04T05:46:20.205Z,6.40
2023-05-04T05:48:47.965Z,7.00
2023-05-04T05:51:15.880Z,6.00
2023-05-04T05:53:44.852Z,6.17
2023-05-04T05:56:14.842Z,6.77
2023-05-04T05:58:42.627Z,7.53
2023-05-04T06:01:10.406Z,6.97
2023-05-04T06:03:38.277Z,7.57
2023-05-04T06:06:06.377Z,6.53
2023-05-04T06:08:34.144Z,6.23
2023-05-04T06:11:01.821Z,6.43
2023-05-04T06:13:30.865Z,6.40
2023-05-04T06:15:58.600Z,6.07
2023-05-04T06:18:26.393Z,6.37
2023-05-04T06:20:59.021Z,5.60
2023-05-04T06:23:27.982Z,6.17
2023-05-04T06:25:55.710Z,6.60
2023-05-04T06:28:23.553Z,5.70
2023-05-04T06:30:52.608Z,6.27
2023-05-04T06:33:20.348Z,6.23
2023-05-04T06:35:48.087Z,5.30
2023-05-04T06:38:15.822Z,5.63
2023-05-04T06:40:43.649Z,5.37
2023-05-04T06:43:11.565Z,5.63
2023-05-04T06:45:40.080Z,5.53
2023-05-04T06:48:09.335Z,5.43
2023-05-04T06:50:37.167Z,5.67
2023-05-04T06:53:07.463Z,4.97
2023-05-04T06:55:35.223Z,4.97
2023-05-04T06:58:02.945Z,5.47
2023-05-04T07:00:31.551Z,5.20
2023-05-04T07:02:59.377Z,5.53
2023-05-04T07:05:29.248Z,5.10
2023-05-04T07:07:58.861Z,4.87
2023-05-04T07:10:26.645Z,4.80
2023-05-04T07:12:54.412Z,4.95
2023-05-04T07:15:22.446Z,4.80
2023-05-04T07:17:50.334Z,4.70
2023-05-04T07:20:18.178Z,5.45
2023-05-04T07:22:47.333Z,4.00
2023-05-04T07:25:15.034Z,4.50
2023-05-04T07:27:45.062Z,4.50
2023-05-04T07:30:13.294Z,4.18
2023-05-04T07:32:41.020Z,4.25
2023-05-04T07:35:09.533Z,4.30
2023-05-04T07:37:37.564Z,4.05
2023-05-04T07:40:08.156Z,4.70
2023-05-04T07:42:36.083Z,4.93
2023-05-04T07:45:03.886Z,4.25
2023-05-04T07:47:32.125Z,4.00
2023-05-04T07:49:59.912Z,3.80
2023-05-04T07:52:27.657Z,3.83
2023-05-04T07:54:55.751Z,3.70
2023-05-04T07:57:24.812Z,3.33
2023-05-04T07:59:55.716Z,4.53
2023-05-04T08:02:23.779Z,4.15
2023-05-04T08:04:51.569Z,3.92
2023-05-04T08:07:20.557Z,3.78
2023-05-04T08:09:48.472Z,3.80
2023-05-04T08:12:16.163Z,3.70
2023-05-04T08:14:48.275Z,3.58
2023-05-04T08:17:16.387Z,3.50
2023-05-04T08:19:44.188Z,3.67
2023-05-04T08:22:11.926Z,3.08
2023-05-04T08:24:39.701Z,3.28
2023-05-04T08:27:09.413Z,3.42
2023-05-04T08:29:37.856Z,3.10
2023-05-04T08:32:07.724Z,3.00
2023-05-04T08:34:36.543Z,2.83
2023-05-04T08:37:04.511Z,2.70
2023-05-04T08:39:32.279Z,3.00
2023-05-04T08:42:00.092Z,2.83
2023-05-04T08:44:27.859Z,2.80
2023-05-04T08:46:56.809Z,2.80
2023-05-04T08:49:29.112Z,2.78
2023-05-04T08:51:57.488Z,3.00
2023-05-04T08:54:27.137Z,2.72
2023-05-04T08:56:56.825Z,3.50
2023-05-04T08:59:25.876Z,3.03
2023-05-04T09:01:58.554Z,2.47
2023-05-04T09:04:29.300Z,2.60
2023-05-04T09:06:58.528Z,2.53
2023-05-04T09:09:28.667Z,2.65
2023-05-04T09:11:56.710Z,3.38
2023-05-04T09:14:33.475Z,2.65
2023-05-04T09:17:02.034Z,2.75
2023-05-04T09:19:34.648Z,3.13
2023-05-04T09:22:02.488Z,2.83
2023-05-04T09:24:30.818Z,3.08
2023-05-04T09:27:09.956Z,3.20
2023-05-04T09:29:39.586Z,2.83
2023-05-04T09:32:12.301Z,2.72
2023-05-04T09:34:49.863Z,2.90
2023-05-04T09:37:18.432Z,2.72
2023-05-04T09:39:56.959Z,2.90
2023-05-04T09:42:24.814Z,2.47
2023-05-04T09:45:03.308Z,2.55
2023-05-04T09:47:38.611Z,2.30
2023-05-04T09:50:16.987Z,2.80
2023-05-04T09:52:48.066Z,3.28
2023-05-04T09:55:17.245Z,2.78
2023-05-04T09:57:46.590Z,2.55
2023-05-04T10:00:17.209Z,2.45
2023-05-04T10:02:46.524Z,3.00
2023-05-04T10:05:18.955Z,2.67
2023-05-04T10:07:47.354Z,3.15
2023-05-04T10:10:16.539Z,2.63
2023-05-04T10:12:46.039Z,2.92
2023-05-04T10:15:15.909Z,2.90
2023-05-04T10:18:08.543Z,2.83
2023-05-04T10:21:02.923Z,2.67
2023-05-04T10:23:49.986Z,2.67
2023-05-04T10:26:31.002Z,2.97
2023-05-04T10:29:12.832Z,2.90
2023-05-04T10:31:41.345Z,3.58
2023-05-04T10:34:10.579Z,3.17
2023-05-04T10:36:41.561Z,2.80
2023-05-04T10:39:19.437Z,2.67
2023-05-04T10:42:03.983Z,2.42
2023-05-04T10:44:32.778Z,2.50
2023-05-04T10:47:02.807Z,2.70
2023-05-04T10:49:30.852Z,2.53
2023-05-04T10:52:11.960Z,2.70
2023-05-04T10:54:41.657Z,2.85
2023-05-04T10:57:10.532Z,2.30
2023-05-04T10:59:39.360Z,2.70
2023-05-04T11:02:07.983Z,2.85
2023-05-04T11:04:36.462Z,2.58
2023-05-04T11:07:08.437Z,2.30
2023-05-04T11:09:39.393Z,2.22
2023-05-04T11:12:10.720Z,2.60
2023-05-04T11:14:42.561Z,2.72
2023-05-04T11:17:27.681Z,2.58
2023-05-04T11:19:56.598Z,2.53
2023-05-04T11:22:24.463Z,2.33
2023-05-04T11:24:54.952Z,2.38
2023-05-04T11:27:25.419Z,2.65
2023-05-04T11:29:57.336Z,3.00
2023-05-04T11:32:35.888Z,2.80
2023-05-04T11:35:04.505Z,2.60
2023-05-04T11:37:39.090Z,3.42
2023-05-04T11:40:13.056Z,3.13
2023-05-04T11:42:42.584Z,2.92
2023-05-04T11:45:13.220Z,2.63
2023-05-04T11:47:41.617Z,2.80
2023-05-04T11:50:12.485Z,2.75
2023-05-04T11:52:41.644Z,3.15
2023-05-04T11:55:12.142Z,2.75
2023-05-04T11:57:40.485Z,2.38
2023-05-04T12:00:09.812Z,3.10
2023-05-04T12:02:38.057Z,2.30
2023-05-04T12:05:14.128Z,2.33
2023-05-04T12:07:42.190Z,2.13
2023-05-04T12:10:11.699Z,2.35
2023-05-04T12:12:39.448Z,2.30
2023-05-04T12:15:08.868Z,2.00
2023-05-04T12:17:43.221Z,2.15
2023-05-04T12:20:11.759Z,2.10
2023-05-04T12:22:39.528Z,2.33
2023-05-04T12:25:09.317Z,2.28
2023-05-04T12:27:41.947Z,2.65
2023-05-04T12:30:11.151Z,2.13
2023-05-04T12:32:39.360Z,2.17
2023-05-04T12:35:08.198Z,2.40
2023-05-04T12:37:36.223Z,2.20
2023-05-04T12:40:11.256Z,2.45
2023-05-04T12:42:46.815Z,2.47
2023-05-04T12:45:16.196Z,2.35
2023-05-04T12:47:43.985Z,2.38
2023-05-04T12:50:12.154Z,2.30
2023-05-04T12:52:41.246Z,2.38
2023-05-04T12:55:09.513Z,2.50
2023-05-04T12:57:37.700Z,2.50
2023-05-04T13:00:09.991Z,2.00
2023-05-04T13:02:38.423Z,2.05
2023-05-04T13:05:07.565Z,2.10
2023-05-04T13:07:36.278Z,2.70
2023-05-04T13:10:04.674Z,2.60
2023-05-04T13:12:32.388Z,2.38
2023-05-04T13:15:00.725Z,2.40
2023-05-04T13:17:30.883Z,2.90
2023-05-04T13:19:58.580Z,2.70
2023-05-04T13:22:27.151Z,2.60
2023-05-04T13:24:54.868Z,2.20
2023-05-04T13:27:22.660Z,2.58
2023-05-04T13:29:50.417Z,2.50
2023-05-04T13:32:18.268Z,2.22
2023-05-04T13:34:48.156Z,2.40
2023-05-04T13:37:18.445Z,2.50
2023-05-04T13:39:46.989Z,2.40
2023-05-04T13:42:15.120Z,2.65
2023-05-04T13:44:45.467Z,2.53
2023-05-04T13:47:14.164Z,2.40
2023-05-04T13:49:42.043Z,2.90
2023-05-04T13:52:11.345Z,2.20
2023-05-04T13:54:39.213Z,2.20
2023-05-04T13:57:07.293Z,2.58
2023-05-04T13:59:35.078Z,2.55
2023-05-04T14:02:03.034Z,2.08
2023-05-04T14:04:31.777Z,3.10
2023-05-04T14:06:59.538Z,2.20
2023-05-04T14:09:28.657Z,2.30
2023-05-04T14:11:56.362Z,2.20
2023-05-04T14:14:24.076Z,2.25
2023-05-04T14:16:51.863Z,2.10
2023-05-04T14:19:19.756Z,2.38
2023-05-04T14:21:47.755Z,2.40
2023-05-04T14:24:15.484Z,2.28
2023-05-04T14:26:44.553Z,2.60
2023-05-04T14:29:12.358Z,2.50
2023-05-04T14:31:40.110Z,2.33
2023-05-04T14:34:07.910Z,2.40
2023-05-04T14:36:36.686Z,2.63
2023-05-04T14:39:04.655Z,2.40
2023-05-04T14:41:33.652Z,2.28
2023-05-04T14:44:02.744Z,2.47
2023-05-04T14:46:30.829Z,3.58
2023-05-04T14:48:58.633Z,2.72
2023-05-04T14:51:27.812Z,2.50
2023-05-04T14:53:55.830Z,2.10
2023-05-04T14:56:23.930Z,2.58
2023-05-04T14:58:52.152Z,2.70
2023-05-04T15:01:21.360Z,2.28
2023-05-04T15:03:49.411Z,2.40
2023-05-04T15:06:17.202Z,2.60
2023-05-04T15:08:44.912Z,2.40
2023-05-04T15:11:12.669Z,2.28
2023-05-04T15:13:40.565Z,2.42
2023-05-04T15:16:08.480Z,2.15
2023-05-04T15:18:37.525Z,2.10
2023-05-04T15:21:05.412Z,2.53
2023-05-04T15:23:33.141Z,2.65
2023-05-04T15:26:00.937Z,2.50
2023-05-04T15:28:28.867Z,2.90
2023-05-04T15:30:56.936Z,2.25
2023-05-04T15:33:24.680Z,2.10
2023-05-04T15:35:53.733Z,2.22
2023-05-04T15:38:22.057Z,3.55
2023-05-04T15:40:49.789Z,3.63
2023-05-04T15:43:17.522Z,2.83
2023-05-04T15:45:45.309Z,2.40
2023-05-04T15:48:13.040Z,2.47
2023-05-04T15:50:40.788Z,2.33
2023-05-04T15:53:09.857Z,2.10
2023-05-04T15:55:37.654Z,2.40
2023-05-04T15:58:05.393Z,2.70
2023-05-04T16:00:34.246Z,2.58
2023-05-04T16:03:02.090Z,2.13
2023-05-04T16:05:30.097Z,2.15
2023-05-04T16:07:58.378Z,2.40
2023-05-04T16:10:27.505Z,2.30
2023-05-04T16:12:55.241Z,2.40
2023-05-04T16:15:23.014Z,2.40
2023-05-04T16:17:50.850Z,2.03
2023-05-04T16:20:18.601Z,2.20
2023-05-04T16:22:46.513Z,2.22
2023-05-04T16:25:14.235Z,2.33
2023-05-04T16:27:43.377Z,2.22
2023-05-04T16:30:12.058Z,2.28
2023-05-04T16:32:39.790Z,2.30
2023-05-04T16:35:08.637Z,2.65
2023-05-04T16:37:37.112Z,2.30
2023-05-04T16:40:14.114Z,2.38
2023-05-04T16:42:43.952Z,2.22
2023-05-04T16:45:14.585Z,2.22
2023-05-04T16:47:42.817Z,2.22
2023-05-04T16:50:11.570Z,5.13
2023-05-04T16:52:40.341Z,7.72
2023-05-04T16:55:11.804Z,2.42
2023-05-04T16:57:40.331Z,3.22
2023-05-04T17:00:11.855Z,2.50
2023-05-04T17:02:39.790Z,2.13
2023-05-04T17:05:10.200Z,2.00
2023-05-04T17:07:39.659Z,1.90
2023-05-04T17:10:09.100Z,1.90
2023-05-04T17:12:37.164Z,1.98
2023-05-04T17:15:05.422Z,2.25
2023-05-04T17:17:34.543Z,2.42
2023-05-04T17:20:02.436Z,2.00
2023-05-04T17:22:30.239Z,2.55
2023-05-04T17:24:58.009Z,1.90
2023-05-04T17:27:25.818Z,2.22
2023-05-04T17:29:53.572Z,2.03
2023-05-04T17:32:21.350Z,2.10
2023-05-04T17:34:50.646Z,2.00
2023-05-04T17:37:18.422Z,2.08
2023-05-04T17:39:47.145Z,1.98
2023-05-04T17:42:15.887Z,2.08
2023-05-04T17:44:43.695Z,2.05
2023-05-04T17:47:11.519Z,2.00
2023-05-04T17:49:39.324Z,1.92
2023-05-04T17:52:08.824Z,2.00
2023-05-04T17:54:37.050Z,1.80
2023-05-04T17:57:05.029Z,2.13
2023-05-04T17:59:32.767Z,2.25
2023-05-04T18:02:00.668Z,1.98
2023-05-04T18:04:31.274Z,2.42
2023-05-04T18:06:59.336Z,2.20
2023-05-04T18:09:28.429Z,2.42
2023-05-04T18:11:57.006Z,2.35
2023-05-04T18:14:24.732Z,2.20
2023-05-04T18:16:52.579Z,2.10
2023-05-04T18:19:24.629Z,2.25
2023-05-04T18:21:52.565Z,2.45
2023-05-04T18:24:20.306Z,3.05
2023-05-04T18:26:49.733Z,2.72
2023-05-04T18:29:19.393Z,1.92
2023-05-04T18:31:48.711Z,2.50
2023-05-04T18:34:16.559Z,2.25
2023-05-04T18:36:44.459Z,2.30
2023-05-04T18:39:13.564Z,2.60
2023-05-04T18:41:41.466Z,2.63
2023-05-04T18:44:10.787Z,2.47
2023-05-04T18:46:38.516Z,2.60
2023-05-04T18:49:06.373Z,2.45
2023-05-04T18:51:34.135Z,3.22
2023-05-04T18:54:02.208Z,3.15
2023-05-04T18:56:30.003Z,2.90
2023-05-04T18:58:57.751Z,2.88
2023-05-04T19:01:27.781Z,3.20
2023-05-04T19:03:55.690Z,2.80
2023-05-04T19:06:23.544Z,3.25
2023-05-04T19:08:51.863Z,3.83
2023-05-04T19:11:19.897Z,3.83
2023-05-04T19:13:48.114Z,4.32
2023-05-04T19:16:17.168Z,3.88
2023-05-04T19:18:46.791Z,3.63
2023-05-04T19:21:14.629Z,3.25
2023-05-04T19:23:42.510Z,3.42
2023-05-04T19:26:10.415Z,3.42
2023-05-04T19:28:39.952Z,4.05
2023-05-04T19:31:08.423Z,4.18
2023-05-04T19:33:47.730Z,4.00
2023-05-04T19:36:17.912Z,3.95
2023-05-04T19:38:45.975Z,4.13
2023-05-04T19:41:14.365Z,3.65
2023-05-04T19:43:42.668Z,4.28
2023-05-04T19:46:10.623Z,4.90
2023-05-04T19:48:39.667Z,4.75
2023-05-04T19:51:07.603Z,4.85
2023-05-04T19:53:36.681Z,4.43
2023-05-04T19:56:04.477Z,5.20
2023-05-04T19:58:32.309Z,4.53
2023-05-04T20:01:00.400Z,3.72
2023-05-04T20:03:28.274Z,4.82
2023-05-04T20:05:56.471Z,4.75
2023-05-04T20:08:24.266Z,5.00
2023-05-04T20:10:53.357Z,4.88
2023-05-04T20:13:21.105Z,4.50
2023-05-04T20:15:48.939Z,5.07
2023-05-04T20:18:16.861Z,5.30
2023-05-04T20:20:44.889Z,4.63
2023-05-04T20:23:13.143Z,5.03
2023-05-04T20:25:41.190Z,5.30
2023-05-04T20:28:10.247Z,5.80
2023-05-04T20:30:38.311Z,5.28
2023-05-04T20:33:06.377Z,5.00
2023-05-04T20:35:34.358Z,5.13
2023-05-04T20:38:02.608Z,5.18
2023-05-04T20:40:30.737Z,4.80
2023-05-04T20:42:58.491Z,5.20
2023-05-04T20:45:27.564Z,5.55
2023-05-04T20:47:55.265Z,5.15
2023-05-04T20:50:23.101Z,5.80
2023-05-04T20:52:51.037Z,4.80
2023-05-04T20:55:18.987Z,5.28
2023-05-04T20:57:46.925Z,4.70
2023-05-04T21:00:16.061Z,4.75
2023-05-04T21:02:45.247Z,4.78
2023-05-04T21:05:13.231Z,4.90
2023-05-04T21:07:40.929Z,4.40
2023-05-04T21:10:09.982Z,4.72
2023-05-04T21:12:37.897Z,4.50
2023-05-04T21:15:06.542Z,4.35
2023-05-04T21:17:34.328Z,4.45
2023-05-04T21:20:04.065Z,3.90
2023-05-04T21:22:31.866Z,3.63
2023-05-04T21:24:59.749Z,4.05
2023-05-04T21:27:27.478Z,4.47
2023-05-04T21:29:55.182Z,4.80
2023-05-04T21:32:22.892Z,4.22
2023-05-04T21:34:53.902Z,4.07
2023-05-04T21:37:22.993Z,3.83
2023-05-04T21:39:54.842Z,3.67
2023-05-04T21:42:22.848Z,3.75
2023-05-04T21:44:54.575Z,3.90
2023-05-04T21:47:22.344Z,3.95
2023-05-04T21:49:51.279Z,3.78
2023-05-04T21:52:19.122Z,3.97
2023-05-04T21:54:48.470Z,4.00
2023-05-04T21:57:16.226Z,4.20
2023-05-04T21:59:43.971Z,3.92
2023-05-04T22:02:11.741Z,3.50
2023-05-04T22:04:43.227Z,3.58
2023-05-04T22:07:11.102Z,4.03
2023-05-04T22:09:38.933Z,3.88
2023-05-04T22:12:08.485Z,4.10
2023-05-04T22:14:36.211Z,4.13
2023-05-04T22:17:04.173Z,4.25
2023-05-04T22:19:31.994Z,4.30
2023-05-04T22:21:59.727Z,4.32
2023-05-04T22:24:27.635Z,4.40
2023-05-04T22:26:55.338Z,3.78
2023-05-04T22:29:24.397Z,4.40
2023-05-04T22:31:52.519Z,4.80
2023-05-04T22:34:20.429Z,4.20
2023-05-04T22:36:48.668Z,4.60
2023-05-04T22:39:16.697Z,4.70
2023-05-04T22:41:44.455Z,4.40
2023-05-04T22:44:12.242Z,4.15
2023-05-04T22:46:41.368Z,4.88
2023-05-04T22:49:09.184Z,4.22
2023-05-04T22:51:37.208Z,4.30
2023-05-04T22:54:05.080Z,3.92
2023-05-04T22:56:33.383Z,4.23
2023-05-04T22:59:01.070Z,4.90
2023-05-04T23:01:30.059Z,4.80
2023-05-04T23:03:59.288Z,5.00
2023-05-04T23:06:28.405Z,5.00
2023-05-04T23:08:56.149Z,5.07
2023-05-04T23:11:23.961Z,5.65
2023-05-04T23:13:52.205Z,5.72
2023-05-04T23:16:19.981Z,5.23
2023-05-04T23:18:48.736Z,5.67
2023-05-04T23:21:17.779Z,4.97
2023-05-04T23:23:45.758Z,5.32
2023-05-04T23:26:13.485Z,4.70
2023-05-04T23:28:41.181Z,4.80
2023-05-04T23:31:08.903Z,5.63
2023-05-04T23:33:36.663Z,4.03
2023-05-04T23:36:04.679Z,5.10
2023-05-04T23:38:33.714Z,5.20
2023-05-04T23:41:03.347Z,4.53
2023-05-04T23:43:31.827Z,4.38
2023-05-04T23:46:00.755Z,4.40
2023-05-04T23:48:28.721Z,4.70
2023-05-04T23:50:58.365Z,4.20
2023-05-04T23:53:26.527Z,4.40
2023-05-04T23:56:04.121Z,4.73
2023-05-04T23:58:33.424Z,4.90
